createdAt,value
2018-06-29T00:00:27.803Z,17.47
2018-06-29T00:02:56.075Z,18.67
2018-06-29T00:05:25.134Z,19.97
2018-06-29T00:07:53.501Z,19.90
2018-06-29T00:10:26.318Z,20.53
2018-06-29T00:12:54.923Z,19.67
2018-06-29T00:15:23.715Z,20.87
2018-06-29T00:17:52.206Z,19.10
2018-06-29T00:20:20.470Z,19.80
2018-06-29T00:22:48.711Z,19.67
2018-06-29T00:25:17.046Z,19.33
2018-06-29T00:27:45.294Z,21.70
2018-06-29T00:30:13.600Z,19.90
2018-06-29T00:32:41.892Z,20.20
2018-06-29T00:35:10.183Z,22.33
2018-06-29T00:37:38.458Z,20.67
2018-06-29T00:40:06.722Z,19.70
2018-06-29T00:42:35.027Z,22.30
2018-06-29T00:45:03.339Z,20.00
2018-06-29T00:47:31.602Z,23.23
2018-06-29T00:49:59.886Z,20.47
2018-06-29T00:52:28.174Z,20.67
2018-06-29T00:54:56.475Z,21.70
2018-06-29T00:57:24.750Z,19.90
2018-06-29T00:59:53.039Z,21.93
2018-06-29T01:02:21.346Z,23.70
2018-06-29T01:04:49.625Z,23.27
2018-06-29T01:07:17.843Z,23.57
2018-06-29T01:09:46.114Z,22.10
2018-06-29T01:12:14.405Z,20.73
2018-06-29T01:14:42.710Z,19.00
2018-06-29T01:17:10.963Z,21.50
2018-06-29T01:19:39.271Z,19.40
2018-06-29T01:22:07.605Z,19.27
2018-06-29T01:24:35.863Z,20.80
2018-06-29T01:27:04.150Z,21.00
2018-06-29T01:29:32.464Z,20.53
2018-06-29T01:32:00.700Z,22.43
2018-06-29T01:34:29.383Z,20.80
2018-06-29T01:36:57.848Z,20.13
2018-06-29T01:39:26.147Z,20.67
2018-06-29T01:41:54.387Z,20.13
2018-06-29T01:44:22.703Z,20.43
2018-06-29T01:46:50.970Z,20.73
2018-06-29T01:49:19.231Z,20.80
2018-06-29T01:51:47.552Z,20.77
2018-06-29T01:54:15.842Z,19.87
2018-06-29T01:56:44.159Z,19.57
2018-06-29T01:59:12.386Z,20.97
2018-06-29T02:01:40.715Z,19.63
2018-06-29T02:04:09.026Z,19.20
2018-06-29T02:06:37.287Z,18.87
2018-06-29T02:09:07.711Z,20.20
2018-06-29T02:11:36.040Z,21.00
2018-06-29T02:14:04.344Z,19.67
2018-06-29T02:16:32.591Z,19.97
2018-06-29T02:19:00.875Z,18.90
2018-06-29T02:21:29.183Z,19.50
2018-06-29T02:23:57.487Z,20.10
2018-06-29T02:26:25.731Z,19.57
2018-06-29T02:28:54.087Z,19.83
2018-06-29T02:31:22.312Z,17.77
2018-06-29T02:33:50.615Z,19.20
2018-06-29T02:36:18.878Z,18.67
2018-06-29T02:38:47.163Z,19.50
2018-06-29T02:41:15.492Z,19.10
2018-06-29T02:44:46.985Z,21.33
2018-06-29T02:47:15.241Z,29.03
2018-06-29T02:49:43.520Z,31.67
2018-06-29T02:52:11.715Z,28.97
2018-06-29T02:54:40.080Z,29.30
2018-06-29T02:57:08.398Z,27.17
2018-06-29T02:59:37.051Z,26.40
2018-06-29T03:02:05.255Z,25.60
2018-06-29T03:04:33.534Z,23.43
2018-06-29T03:07:01.863Z,22.57
2018-06-29T03:09:30.123Z,26.90
2018-06-29T03:11:58.420Z,24.13
2018-06-29T03:14:26.711Z,21.50
2018-06-29T03:16:54.912Z,20.90
2018-06-29T03:19:23.169Z,20.70
2018-06-29T03:21:51.460Z,21.50
2018-06-29T03:24:19.664Z,19.70
2018-06-29T03:26:47.942Z,20.80
2018-06-29T03:29:16.223Z,20.77
2018-06-29T03:31:44.527Z,21.40
2018-06-29T03:34:12.799Z,20.27
2018-06-29T03:36:41.102Z,21.37
2018-06-29T03:39:10.575Z,20.70
2018-06-29T03:41:38.894Z,20.27
2018-06-29T03:44:07.251Z,21.83
2018-06-29T03:46:35.650Z,21.57
2018-06-29T03:49:03.883Z,22.13
2018-06-29T03:51:32.338Z,21.30
2018-06-29T03:54:00.582Z,19.67
2018-06-29T03:56:28.815Z,19.00
2018-06-29T03:58:57.018Z,19.60
2018-06-29T04:01:25.323Z,19.87
2018-06-29T04:03:53.626Z,20.93
2018-06-29T04:06:21.951Z,20.83
2018-06-29T04:08:50.178Z,20.60
2018-06-29T04:11:18.467Z,20.40
2018-06-29T04:13:46.763Z,21.17
2018-06-29T04:16:14.983Z,19.47
2018-06-29T04:18:43.223Z,20.03
2018-06-29T04:21:11.536Z,21.40
2018-06-29T04:23:39.795Z,20.60
2018-06-29T04:26:08.043Z,21.13
2018-06-29T04:28:36.276Z,20.83
2018-06-29T04:31:04.636Z,19.90
2018-06-29T04:33:32.879Z,22.23
2018-06-29T04:36:01.155Z,21.30
2018-06-29T04:38:29.468Z,21.13
2018-06-29T04:40:57.722Z,21.10
2018-06-29T04:43:26.036Z,22.10
2018-06-29T04:45:54.311Z,19.33
2018-06-29T04:48:22.594Z,20.20
2018-06-29T04:50:50.899Z,19.60
2018-06-29T04:53:19.251Z,19.73
2018-06-29T04:55:47.476Z,21.10
2018-06-29T04:58:15.771Z,20.47
2018-06-29T05:00:44.042Z,21.30
2018-06-29T05:03:12.328Z,22.33
2018-06-29T05:05:40.647Z,20.83
2018-06-29T05:08:08.929Z,25.67
2018-06-29T05:10:37.206Z,23.37
2018-06-29T05:13:05.624Z,25.67
2018-06-29T05:15:33.935Z,25.37
2018-06-29T05:18:02.171Z,24.37
2018-06-29T05:20:30.535Z,23.40
2018-06-29T05:22:58.730Z,20.67
2018-06-29T05:25:27.055Z,21.73
2018-06-29T05:27:55.330Z,21.53
2018-06-29T05:30:23.622Z,21.50
2018-06-29T05:32:51.914Z,21.23
2018-06-29T05:35:20.217Z,24.37
2018-06-29T05:37:48.423Z,22.30
2018-06-29T05:40:16.670Z,22.40
2018-06-29T05:42:44.900Z,23.03
2018-06-29T05:45:13.081Z,22.20
2018-06-29T05:47:41.314Z,22.47
2018-06-29T05:50:09.518Z,20.87
2018-06-29T05:52:37.745Z,23.27
2018-06-29T05:55:07.658Z,22.50
2018-06-29T05:57:35.946Z,21.77
2018-06-29T06:00:04.771Z,25.03
2018-06-29T06:02:33.031Z,23.90
2018-06-29T06:05:01.255Z,24.03
2018-06-29T06:07:29.458Z,23.20
2018-06-29T06:09:57.737Z,23.63
2018-06-29T06:12:25.895Z,23.10
2018-06-29T06:14:54.102Z,22.87
2018-06-29T06:17:22.350Z,21.50
2018-06-29T06:20:03.999Z,22.73
2018-06-29T06:22:32.231Z,23.90
2018-06-29T06:25:00.476Z,19.80
2018-06-29T06:27:28.831Z,22.90
2018-06-29T06:29:57.387Z,23.43
2018-06-29T06:32:25.871Z,23.03
2018-06-29T06:34:54.093Z,22.83
2018-06-29T06:37:22.423Z,23.17
2018-06-29T06:39:50.642Z,25.57
2018-06-29T06:42:18.952Z,25.10
2018-06-29T06:44:47.266Z,23.77
2018-06-29T06:47:15.792Z,22.40
2018-06-29T06:49:44.107Z,19.07
2018-06-29T06:52:12.338Z,20.50
2018-06-29T06:54:40.596Z,19.97
2018-06-29T06:57:08.866Z,19.77
2018-06-29T06:59:37.095Z,19.80
2018-06-29T07:02:05.354Z,20.33
2018-06-29T07:04:33.578Z,20.30
2018-06-29T07:07:02.790Z,20.00
2018-06-29T07:09:31.002Z,20.40
2018-06-29T07:11:59.211Z,18.87
2018-06-29T07:14:27.419Z,20.70
2018-06-29T07:16:55.662Z,19.73
2018-06-29T07:19:23.866Z,19.60
2018-06-29T07:21:52.100Z,18.80
2018-06-29T07:24:20.329Z,19.30
2018-06-29T07:26:48.520Z,18.20
2018-06-29T07:29:16.761Z,19.93
2018-06-29T07:31:45.021Z,18.17
2018-06-29T07:34:13.221Z,19.10
2018-06-29T07:36:41.436Z,19.70
2018-06-29T07:39:10.470Z,18.67
2018-06-29T07:41:38.734Z,18.07
2018-06-29T07:44:06.928Z,20.47
2018-06-29T07:46:35.153Z,19.87
2018-06-29T07:49:03.364Z,21.77
2018-06-29T07:51:31.566Z,18.40
2018-06-29T07:53:59.766Z,19.30
2018-06-29T07:56:28.054Z,18.27
2018-06-29T07:58:56.328Z,17.20
2018-06-29T08:01:24.543Z,19.30
2018-06-29T08:03:52.746Z,17.63
2018-06-29T08:06:20.979Z,17.30
2018-06-29T08:08:49.208Z,17.07
2018-06-29T08:11:17.403Z,16.63
2018-06-29T08:13:45.606Z,17.20
2018-06-29T08:16:13.818Z,16.93
2018-06-29T08:18:42.007Z,18.27
2018-06-29T08:21:10.240Z,18.13
2018-06-29T08:23:38.426Z,18.03
2018-06-29T08:26:17.883Z,20.07
2018-06-29T08:28:46.079Z,17.80
2018-06-29T08:31:14.303Z,17.40
2018-06-29T08:33:42.539Z,17.53
2018-06-29T08:36:10.755Z,18.60
2018-06-29T08:38:39.035Z,17.87
2018-06-29T08:41:07.212Z,19.17
2018-06-29T08:43:35.420Z,19.13
2018-06-29T08:46:03.591Z,19.33
2018-06-29T08:48:31.786Z,18.53
2018-06-29T08:51:00.393Z,18.30
2018-06-29T08:53:28.971Z,18.30
2018-06-29T08:55:57.217Z,19.97
2018-06-29T08:58:25.462Z,19.97
2018-06-29T09:00:53.677Z,17.93
2018-06-29T09:03:21.875Z,18.50
2018-06-29T09:05:50.146Z,17.80
2018-06-29T09:08:18.360Z,17.80
2018-06-29T09:10:46.647Z,19.77
2018-06-29T09:13:15.167Z,18.20
2018-06-29T09:15:43.383Z,21.40
2018-06-29T09:18:11.591Z,20.53
2018-06-29T09:20:39.799Z,18.30
2018-06-29T09:23:08.095Z,21.10
2018-06-29T09:25:36.290Z,18.20
2018-06-29T09:28:04.534Z,17.93
2018-06-29T09:30:32.755Z,18.80
2018-06-29T09:33:00.950Z,18.13
2018-06-29T09:35:29.151Z,18.63
2018-06-29T09:37:57.342Z,19.03
2018-06-29T09:40:25.607Z,18.60
2018-06-29T09:42:53.811Z,19.20
2018-06-29T09:45:27.683Z,17.60
2018-06-29T09:47:55.984Z,17.77
2018-06-29T09:50:24.164Z,18.53
2018-06-29T09:52:52.374Z,18.03
2018-06-29T09:55:20.587Z,17.63
2018-06-29T09:57:48.810Z,18.10
2018-06-29T10:00:21.192Z,18.00
2018-06-29T10:02:49.491Z,17.77
2018-06-29T10:05:17.751Z,16.43
2018-06-29T10:07:46.022Z,17.93
2018-06-29T10:10:14.317Z,17.37
2018-06-29T10:12:42.562Z,18.23
2018-06-29T10:15:10.776Z,16.87
2018-06-29T10:17:39.014Z,16.23
2018-06-29T10:20:07.429Z,16.77
2018-06-29T10:22:35.602Z,16.30
2018-06-29T10:25:03.858Z,17.20
2018-06-29T10:27:32.048Z,16.30
2018-06-29T10:30:00.257Z,17.67
2018-06-29T10:32:28.463Z,16.00
2018-06-29T10:34:56.687Z,17.67
2018-06-29T10:37:24.931Z,17.03
2018-06-29T10:39:53.134Z,16.00
2018-06-29T10:42:21.359Z,16.83
2018-06-29T10:44:49.715Z,17.50
2018-06-29T10:47:17.893Z,15.50
2018-06-29T10:49:46.230Z,15.63
2018-06-29T10:52:14.519Z,16.03
2018-06-29T10:54:42.718Z,15.60
2018-06-29T10:57:11.084Z,15.47
2018-06-29T10:59:39.363Z,16.27
2018-06-29T11:02:07.668Z,17.00
2018-06-29T11:04:36.069Z,17.53
2018-06-29T11:07:04.385Z,16.30
2018-06-29T11:09:32.639Z,16.27
2018-06-29T11:12:00.858Z,18.00
2018-06-29T11:14:29.069Z,16.17
2018-06-29T11:16:57.327Z,16.30
2018-06-29T11:19:25.517Z,16.67
2018-06-29T11:21:53.736Z,17.00
2018-06-29T11:24:22.091Z,16.70
2018-06-29T11:26:50.282Z,16.10
2018-06-29T11:29:18.518Z,17.50
2018-06-29T11:31:46.763Z,16.37
2018-06-29T11:34:15.047Z,15.60
2018-06-29T11:36:47.845Z,16.07
2018-06-29T11:39:16.023Z,16.27
2018-06-29T11:41:44.490Z,17.13
2018-06-29T11:44:13.442Z,16.20
2018-06-29T11:46:41.603Z,15.40
2018-06-29T11:49:10.182Z,16.63
2018-06-29T11:51:38.562Z,16.10
2018-06-29T11:54:07.263Z,16.37
2018-06-29T11:56:35.498Z,14.30
2018-06-29T11:59:03.690Z,15.23
2018-06-29T12:01:31.923Z,14.77
2018-06-29T12:04:00.426Z,15.33
2018-06-29T12:06:28.650Z,16.90
2018-06-29T12:08:56.846Z,16.47
2018-06-29T12:11:25.079Z,15.80
2018-06-29T12:13:53.290Z,16.03
2018-06-29T12:16:21.510Z,17.10
2018-06-29T12:18:49.727Z,16.43
2018-06-29T12:21:17.943Z,14.43
2018-06-29T12:23:46.218Z,15.20
2018-06-29T12:26:14.448Z,15.60
2018-06-29T12:28:42.678Z,15.10
2018-06-29T12:31:10.886Z,15.23
2018-06-29T12:33:39.128Z,13.90
2018-06-29T12:36:07.459Z,15.20
2018-06-29T12:38:35.967Z,16.30
2018-06-29T12:41:04.254Z,13.90
2018-06-29T12:43:32.607Z,15.10
2018-06-29T12:46:01.214Z,14.23
2018-06-29T12:52:00.911Z,15.17
2018-06-29T12:54:29.111Z,14.10
2018-06-29T12:56:57.327Z,14.10
2018-06-29T12:59:25.544Z,13.90
2018-06-29T13:01:53.782Z,13.70
2018-06-29T13:04:21.983Z,13.40
2018-06-29T13:06:50.232Z,13.13
2018-06-29T13:09:18.415Z,14.03
2018-06-29T13:11:46.632Z,12.60
2018-06-29T13:14:14.907Z,12.63
2018-06-29T13:16:43.047Z,12.97
2018-06-29T13:19:11.279Z,11.47
2018-06-29T13:21:39.494Z,12.67
2018-06-29T13:24:07.715Z,12.13
2018-06-29T13:26:35.906Z,11.40
2018-06-29T13:29:04.211Z,12.23
2018-06-29T13:31:32.447Z,11.80
2018-06-29T13:34:00.635Z,12.10
2018-06-29T13:36:28.863Z,11.93
2018-06-29T13:38:57.047Z,12.33
2018-06-29T13:41:25.261Z,12.33
2018-06-29T13:43:53.495Z,12.17
2018-06-29T13:46:21.724Z,12.40
2018-06-29T13:48:49.946Z,12.50
2018-06-29T13:51:18.170Z,12.60
2018-06-29T13:53:46.366Z,12.67
2018-06-29T13:56:14.598Z,12.77
2018-06-29T13:58:42.806Z,12.13
2018-06-29T14:01:11.043Z,11.90
2018-06-29T14:03:39.223Z,11.47
2018-06-29T14:06:07.406Z,11.73
2018-06-29T14:08:35.599Z,12.70
2018-06-29T14:11:03.770Z,11.10
2018-06-29T14:13:31.963Z,11.70
2018-06-29T14:16:00.171Z,13.17
2018-06-29T14:18:28.356Z,12.23
2018-06-29T14:20:56.550Z,11.30
2018-06-29T14:23:24.744Z,12.33
2018-06-29T14:25:52.914Z,12.20
2018-06-29T14:28:21.130Z,11.57
2018-06-29T14:30:49.470Z,12.00
2018-06-29T14:33:17.891Z,11.60
2018-06-29T14:35:46.107Z,12.03
2018-06-29T14:38:14.342Z,12.30
2018-06-29T14:40:42.562Z,13.53
2018-06-29T14:43:10.747Z,12.90
2018-06-29T14:45:38.971Z,13.30
2018-06-29T14:48:07.182Z,12.83
2018-06-29T14:50:35.407Z,13.40
2018-06-29T14:53:03.626Z,14.87
2018-06-29T14:55:31.855Z,14.40
2018-06-29T14:58:00.051Z,14.97
2018-06-29T15:00:28.247Z,13.90
2018-06-29T15:02:56.487Z,14.90
2018-06-29T15:05:24.676Z,13.07
2018-06-29T15:07:52.994Z,14.13
2018-06-29T15:10:21.688Z,13.20
2018-06-29T15:12:49.899Z,14.13
2018-06-29T15:15:18.238Z,13.60
2018-06-29T15:17:47.047Z,13.47
2018-06-29T15:20:15.285Z,13.67
2018-06-29T15:22:43.444Z,12.90
2018-06-29T15:25:11.662Z,14.20
2018-06-29T15:27:39.870Z,14.50
2018-06-29T15:30:08.129Z,13.20
2018-06-29T15:32:36.378Z,14.13
2018-06-29T15:35:04.818Z,12.90
2018-06-29T15:37:33.027Z,14.17
2018-06-29T15:40:01.251Z,12.27
2018-06-29T15:42:29.486Z,12.60
2018-06-29T15:44:57.675Z,12.70
2018-06-29T15:47:25.882Z,13.37
2018-06-29T15:49:54.096Z,12.97
2018-06-29T15:52:22.314Z,11.63
2018-06-29T15:54:50.514Z,11.63
2018-06-29T15:57:18.734Z,12.47
2018-06-29T15:59:46.935Z,12.30
2018-06-29T16:02:15.176Z,12.00
2018-06-29T16:04:43.391Z,13.00
2018-06-29T16:07:11.600Z,13.10
2018-06-29T16:09:39.818Z,12.50
2018-06-29T16:12:08.117Z,12.97
2018-06-29T16:14:36.382Z,11.23
2018-06-29T16:17:05.883Z,12.10
2018-06-29T16:19:34.069Z,12.30
2018-06-29T16:22:02.310Z,12.13
2018-06-29T16:24:30.524Z,11.00
2018-06-29T16:26:58.735Z,11.70
2018-06-29T16:29:26.984Z,10.30
2018-06-29T16:31:55.142Z,10.10
2018-06-29T16:34:23.350Z,11.10
2018-06-29T16:36:51.577Z,10.53
2018-06-29T16:39:19.762Z,10.93
2018-06-29T16:41:48.067Z,10.97
2018-06-29T16:44:16.343Z,11.70
2018-06-29T16:46:47.083Z,10.70
2018-06-29T16:49:15.312Z,12.00
2018-06-29T16:51:43.514Z,12.07
2018-06-29T16:54:11.886Z,12.03
2018-06-29T16:56:40.088Z,11.47
2018-06-29T16:59:09.635Z,12.43
2018-06-29T17:01:37.843Z,12.33
2018-06-29T17:04:06.099Z,12.87
2018-06-29T17:06:34.298Z,12.90
2018-06-29T17:09:02.523Z,12.57
2018-06-29T17:11:30.742Z,12.73
2018-06-29T17:13:58.937Z,12.10
2018-06-29T17:16:29.794Z,12.47
2018-06-29T17:18:58.091Z,12.87
2018-06-29T17:21:26.250Z,11.77
2018-06-29T17:23:54.552Z,13.60
2018-06-29T17:26:22.714Z,12.07
2018-06-29T17:28:51.001Z,12.70
2018-06-29T17:31:19.391Z,12.73
2018-06-29T17:33:47.746Z,13.17
2018-06-29T17:36:15.864Z,12.73
2018-06-29T17:38:44.067Z,13.50
2018-06-29T17:41:12.359Z,12.40
2018-06-29T17:43:40.575Z,12.13
2018-06-29T17:46:08.779Z,11.53
2018-06-29T17:48:36.994Z,12.67
2018-06-29T17:51:05.471Z,13.47
2018-06-29T17:53:33.671Z,12.60
2018-06-29T17:56:01.869Z,13.27
2018-06-29T17:58:31.188Z,11.93
2018-06-29T18:00:59.383Z,12.20
2018-06-29T18:03:27.583Z,12.30
2018-06-29T18:05:55.783Z,12.47
2018-06-29T18:08:24.222Z,12.57
2018-06-29T18:10:52.443Z,12.90
2018-06-29T18:13:20.737Z,13.50
2018-06-29T18:15:48.871Z,14.10
2018-06-29T18:18:17.066Z,13.80
2018-06-29T18:20:45.285Z,13.17
2018-06-29T18:23:13.639Z,13.90
2018-06-29T18:25:41.988Z,14.40
2018-06-29T18:28:10.412Z,13.40
2018-06-29T18:30:38.857Z,14.90
2018-06-29T18:33:11.891Z,13.57
2018-06-29T18:35:40.504Z,14.37
2018-06-29T18:38:09.111Z,15.40
2018-06-29T18:40:37.644Z,14.60
2018-06-29T18:43:06.427Z,15.70
2018-06-29T18:45:34.988Z,17.73
2018-06-29T18:48:03.545Z,13.80
2018-06-29T18:50:32.124Z,16.30
2018-06-29T18:53:00.639Z,16.63
2018-06-29T18:55:30.412Z,15.83
2018-06-29T18:57:58.946Z,15.07
2018-06-29T19:00:27.448Z,16.53
2018-06-29T19:02:55.996Z,16.07
2018-06-29T19:05:24.541Z,16.30
2018-06-29T19:07:53.037Z,15.63
2018-06-29T19:10:21.570Z,15.70
2018-06-29T19:12:50.160Z,16.97
2018-06-29T19:15:18.675Z,15.03
2018-06-29T19:17:47.178Z,14.57
2018-06-29T19:20:15.745Z,15.40
2018-06-29T19:22:44.252Z,15.13
2018-06-29T19:25:12.793Z,15.23
2018-06-29T19:27:41.445Z,14.47
2018-06-29T19:30:10.048Z,14.93
2018-06-29T19:32:38.582Z,14.93
2018-06-29T19:35:07.117Z,14.90
2018-06-29T19:37:35.657Z,15.87
2018-06-29T19:40:04.338Z,14.93
2018-06-29T19:42:32.958Z,14.73
2018-06-29T19:45:01.499Z,14.37
2018-06-29T19:47:30.033Z,14.67
2018-06-29T19:49:58.576Z,15.20
2018-06-29T19:52:27.099Z,15.93
2018-06-29T19:54:55.534Z,15.30
2018-06-29T19:57:23.842Z,15.03
2018-06-29T19:59:52.048Z,14.83
2018-06-29T20:02:20.307Z,15.33
2018-06-29T20:04:48.589Z,14.27
2018-06-29T20:07:16.797Z,14.70
2018-06-29T20:09:44.994Z,16.23
2018-06-29T20:12:13.242Z,17.13
2018-06-29T20:14:41.526Z,16.33
2018-06-29T20:17:09.880Z,17.30
2018-06-29T20:19:38.103Z,16.43
2018-06-29T20:22:09.354Z,17.33
2018-06-29T20:24:37.584Z,18.77
2018-06-29T20:27:05.861Z,17.73
2018-06-29T20:29:34.151Z,18.43
2018-06-29T20:32:02.476Z,17.07
2018-06-29T20:34:31.566Z,17.20
2018-06-29T20:36:59.886Z,18.90
2018-06-29T20:39:59.219Z,18.43
2018-06-29T20:42:27.531Z,19.53
2018-06-29T20:44:55.838Z,17.30
2018-06-29T20:47:24.138Z,18.30
2018-06-29T20:49:52.394Z,18.43
2018-06-29T20:52:20.958Z,19.13
2018-06-29T20:54:49.215Z,19.20
2018-06-29T20:57:17.472Z,18.27
2018-06-29T20:59:45.754Z,19.60
2018-06-29T21:02:14.080Z,18.93
2018-06-29T21:04:42.314Z,18.80
2018-06-29T21:07:10.535Z,20.83
2018-06-29T21:09:38.822Z,19.20
2018-06-29T21:12:07.122Z,21.10
2018-06-29T21:14:35.435Z,19.70
2018-06-29T21:17:03.711Z,19.13
2018-06-29T21:19:31.970Z,20.37
2018-06-29T21:22:00.279Z,20.80
2018-06-29T21:24:28.607Z,19.30
2018-06-29T21:26:56.838Z,20.30
2018-06-29T21:29:25.126Z,19.47
2018-06-29T21:31:53.415Z,19.20
2018-06-29T21:34:21.740Z,20.40
2018-06-29T21:36:49.990Z,21.47
2018-06-29T21:39:18.222Z,21.60
2018-06-29T21:41:46.438Z,21.87
2018-06-29T21:44:14.782Z,25.20
2018-06-29T21:46:43.063Z,23.00
2018-06-29T21:49:11.315Z,23.53
2018-06-29T21:51:39.595Z,22.37
2018-06-29T21:54:07.813Z,22.47
2018-06-29T21:56:35.998Z,22.37
2018-06-29T21:59:04.211Z,20.87
2018-06-29T22:01:32.419Z,23.07
2018-06-29T22:04:00.610Z,22.03
2018-06-29T22:06:28.820Z,21.83
2018-06-29T22:08:57.042Z,23.23
2018-06-29T22:11:25.232Z,23.27
2018-06-29T22:13:53.423Z,21.80
2018-06-29T22:16:21.627Z,22.20
2018-06-29T22:18:50.040Z,22.50
2018-06-29T22:21:18.275Z,21.17
2018-06-29T22:23:46.477Z,22.40
2018-06-29T22:26:14.678Z,21.70
2018-06-29T22:28:42.962Z,21.10
2018-06-29T22:31:11.175Z,22.10
2018-06-29T22:34:10.100Z,22.43
2018-06-29T22:36:38.342Z,22.50
2018-06-29T22:39:09.130Z,22.67
2018-06-29T22:41:37.379Z,20.93
2018-06-29T22:44:05.599Z,22.20
2018-06-29T22:46:33.795Z,22.67
2018-06-29T22:49:02.091Z,23.60
2018-06-29T22:51:30.323Z,24.20
2018-06-29T22:53:58.595Z,22.10
2018-06-29T22:56:26.839Z,22.60
2018-06-29T22:59:57.838Z,23.30
2018-06-29T23:02:26.052Z,23.80
2018-06-29T23:04:54.267Z,24.60
2018-06-29T23:07:22.498Z,22.40
2018-06-29T23:09:50.731Z,24.20
2018-06-29T23:12:18.942Z,24.53
2018-06-29T23:14:47.173Z,24.77
2018-06-29T23:17:15.391Z,23.83
2018-06-29T23:19:43.586Z,24.43
2018-06-29T23:22:11.784Z,24.10
2018-06-29T23:24:40.016Z,23.43
2018-06-29T23:27:08.195Z,25.03
2018-06-29T23:29:36.419Z,25.10
2018-06-29T23:32:04.689Z,24.73
2018-06-29T23:34:32.936Z,23.77
2018-06-29T23:37:01.180Z,25.00
2018-06-29T23:39:29.387Z,25.87
2018-06-29T23:41:57.622Z,25.20
2018-06-29T23:44:25.814Z,25.23
2018-06-29T23:46:54.041Z,25.63
2018-06-29T23:49:22.226Z,25.70
2018-06-29T23:51:50.423Z,24.80
2018-06-29T23:54:18.699Z,26.80
2018-06-29T23:56:46.894Z,25.57
2018-06-29T23:59:15.099Z,25.77
